sensor_id;sensor_type;location;lat;lon;timestamp;temperature;humidity
10312;DHT22;5201;48.776;9.128;2023-02-11T00:01:49;1.90;99.90
10312;DHT22;5201;48.776;9.128;2023-02-11T00:04:15;1.90;99.90
10312;DHT22;5201;48.776;9.128;2023-02-11T00:06:40;3.20;99.90
10312;DHT22;5201;48.776;9.128;2023-02-11T00:09:06;2.10;99.90
10312;DHT22;5201;48.776;9.128;2023-02-11T00:11:32;2.10;99.90
10312;DHT22;5201;48.776;9.128;2023-02-11T00:14:00;2.00;99.90
10312;DHT22;5201;48.776;9.128;2023-02-11T00:16:26;2.10;99.90
10312;DHT22;5201;48.776;9.128;2023-02-11T00:18:52;2.10;99.90
10312;DHT22;5201;48.776;9.128;2023-02-11T00:21:23;2.10;99.90
10312;DHT22;5201;48.776;9.128;2023-02-11T00:23:49;2.10;99.90
10312;DHT22;5201;48.776;9.128;2023-02-11T00:26:25;2.10;99.90
10312;DHT22;5201;48.776;9.128;2023-02-11T00:28:51;2.10;99.90
10312;DHT22;5201;48.776;9.128;2023-02-11T00:31:19;2.10;99.90
10312;DHT22;5201;48.776;9.128;2023-02-11T00:33:45;2.10;99.90
10312;DHT22;5201;48.776;9.128;2023-02-11T00:36:20;2.50;99.90
10312;DHT22;5201;48.776;9.128;2023-02-11T00:38:48;2.10;99.90
10312;DHT22;5201;48.776;9.128;2023-02-11T00:41:15;2.10;99.90
10312;DHT22;5201;48.776;9.128;2023-02-11T00:43:41;2.00;99.90
10312;DHT22;5201;48.776;9.128;2023-02-11T00:46:07;2.00;99.90
10312;DHT22;5201;48.776;9.128;2023-02-11T00:48:33;1.90;99.90
10312;DHT22;5201;48.776;9.128;2023-02-11T00:50:58;2.00;99.90
10312;DHT22;5201;48.776;9.128;2023-02-11T00:53:24;1.90;99.90
10312;DHT22;5201;48.776;9.128;2023-02-11T00:55:50;2.30;99.90
10312;DHT22;5201;48.776;9.128;2023-02-11T00:58:16;1.90;99.90
10312;DHT22;5201;48.776;9.128;2023-02-11T01:00:41;1.90;99.90
10312;DHT22;5201;48.776;9.128;2023-02-11T01:03:07;1.80;99.90
10312;DHT22;5201;48.776;9.128;2023-02-11T01:05:32;1.80;99.90
10312;DHT22;5201;48.776;9.128;2023-02-11T01:07:58;1.80;99.90
10312;DHT22;5201;48.776;9.128;2023-02-11T01:10:24;1.90;99.90
10312;DHT22;5201;48.776;9.128;2023-02-11T01:12:49;2.00;99.90
10312;DHT22;5201;48.776;9.128;2023-02-11T01:15:16;2.00;99.90
10312;DHT22;5201;48.776;9.128;2023-02-11T01:17:43;1.90;99.90
10312;DHT22;5201;48.776;9.128;2023-02-11T01:20:14;2.00;99.90
10312;DHT22;5201;48.776;9.128;2023-02-11T01:22:40;2.00;99.90
10312;DHT22;5201;48.776;9.128;2023-02-11T01:25:07;1.90;99.90
10312;DHT22;5201;48.776;9.128;2023-02-11T01:27:32;1.80;99.90
10312;DHT22;5201;48.776;9.128;2023-02-11T01:29:58;1.80;99.90
10312;DHT22;5201;48.776;9.128;2023-02-11T01:32:24;1.80;99.90
10312;DHT22;5201;48.776;9.128;2023-02-11T01:34:50;2.10;99.90
10312;DHT22;5201;48.776;9.128;2023-02-11T01:37:15;1.80;99.90
10312;DHT22;5201;48.776;9.128;2023-02-11T01:39:41;1.80;99.90
10312;DHT22;5201;48.776;9.128;2023-02-11T01:42:06;1.80;99.90
10312;DHT22;5201;48.776;9.128;2023-02-11T01:44:37;1.80;99.90
10312;DHT22;5201;48.776;9.128;2023-02-11T01:47:04;1.80;99.90
10312;DHT22;5201;48.776;9.128;2023-02-11T01:49:41;1.80;99.90
10312;DHT22;5201;48.776;9.128;2023-02-11T01:52:21;1.90;99.90
10312;DHT22;5201;48.776;9.128;2023-02-11T01:54:58;1.90;99.90
10312;DHT22;5201;48.776;9.128;2023-02-11T01:57:46;1.90;99.90
10312;DHT22;5201;48.776;9.128;2023-02-11T02:00:17;2.00;99.90
10312;DHT22;5201;48.776;9.128;2023-02-11T02:08:15;1.90;99.90
10312;DHT22;5201;48.776;9.128;2023-02-11T02:10:41;2.00;99.90
10312;DHT22;5201;48.776;9.128;2023-02-11T02:13:08;2.00;99.90
10312;DHT22;5201;48.776;9.128;2023-02-11T02:15:36;2.10;99.90
10312;DHT22;5201;48.776;9.128;2023-02-11T02:23:37;1.90;99.90
10312;DHT22;5201;48.776;9.128;2023-02-11T02:31:52;1.90;99.90
10312;DHT22;5201;48.776;9.128;2023-02-11T02:34:18;1.90;99.90
10312;DHT22;5201;48.776;9.128;2023-02-11T02:36:56;2.00;99.90
10312;DHT22;5201;48.776;9.128;2023-02-11T02:39:28;2.00;99.90
10312;DHT22;5201;48.776;9.128;2023-02-11T02:41:56;1.90;99.90
10312;DHT22;5201;48.776;9.128;2023-02-11T02:44:22;2.00;99.90
10312;DHT22;5201;48.776;9.128;2023-02-11T02:46:48;2.10;99.90
10312;DHT22;5201;48.776;9.128;2023-02-11T02:49:15;2.10;99.90
10312;DHT22;5201;48.776;9.128;2023-02-11T02:51:44;2.00;99.90
10312;DHT22;5201;48.776;9.128;2023-02-11T02:57:06;2.00;99.90
10312;DHT22;5201;48.776;9.128;2023-02-11T02:59:47;2.00;99.90
10312;DHT22;5201;48.776;9.128;2023-02-11T03:02:38;2.00;99.90
10312;DHT22;5201;48.776;9.128;2023-02-11T03:05:16;2.10;99.90
10312;DHT22;5201;48.776;9.128;2023-02-11T03:07:55;2.00;99.90
10312;DHT22;5201;48.776;9.128;2023-02-11T03:10:30;2.00;99.90
10312;DHT22;5201;48.776;9.128;2023-02-11T03:12:56;2.00;99.90
10312;DHT22;5201;48.776;9.128;2023-02-11T03:15:24;2.00;99.90
10312;DHT22;5201;48.776;9.128;2023-02-11T03:17:53;2.80;99.90
10312;DHT22;5201;48.776;9.128;2023-02-11T03:20:21;1.90;99.90
10312;DHT22;5201;48.776;9.128;2023-02-11T03:22:54;2.00;99.90
10312;DHT22;5201;48.776;9.128;2023-02-11T03:25:25;2.00;99.90
10312;DHT22;5201;48.776;9.128;2023-02-11T03:28:07;1.90;99.90
10312;DHT22;5201;48.776;9.128;2023-02-11T03:30:40;1.80;99.90
10312;DHT22;5201;48.776;9.128;2023-02-11T03:33:13;1.90;99.90
10312;DHT22;5201;48.776;9.128;2023-02-11T03:35:47;1.90;99.90
10312;DHT22;5201;48.776;9.128;2023-02-11T03:38:20;1.90;99.90
10312;DHT22;5201;48.776;9.128;2023-02-11T03:40:48;1.80;99.90
10312;DHT22;5201;48.776;9.128;2023-02-11T03:43:17;1.60;99.90
10312;DHT22;5201;48.776;9.128;2023-02-11T03:45:46;1.60;99.90
10312;DHT22;5201;48.776;9.128;2023-02-11T03:48:28;1.60;99.90
10312;DHT22;5201;48.776;9.128;2023-02-11T03:50:56;1.80;99.90
10312;DHT22;5201;48.776;9.128;2023-02-11T03:53:23;1.80;99.90
10312;DHT22;5201;48.776;9.128;2023-02-11T03:55:50;1.90;99.90
10312;DHT22;5201;48.776;9.128;2023-02-11T03:58:17;2.00;99.90
10312;DHT22;5201;48.776;9.128;2023-02-11T04:00:44;2.00;99.90
10312;DHT22;5201;48.776;9.128;2023-02-11T04:03:11;2.10;99.90
10312;DHT22;5201;48.776;9.128;2023-02-11T04:05:37;2.20;99.90
10312;DHT22;5201;48.776;9.128;2023-02-11T04:08:03;2.20;99.90
10312;DHT22;5201;48.776;9.128;2023-02-11T04:10:29;2.20;99.90
10312;DHT22;5201;48.776;9.128;2023-02-11T04:12:54;2.00;99.90
10312;DHT22;5201;48.776;9.128;2023-02-11T04:15:20;1.90;99.90
10312;DHT22;5201;48.776;9.128;2023-02-11T04:17:46;2.00;99.90
10312;DHT22;5201;48.776;9.128;2023-02-11T04:20:12;2.10;99.90
10312;DHT22;5201;48.776;9.128;2023-02-11T04:22:38;2.80;99.90
10312;DHT22;5201;48.776;9.128;2023-02-11T04:25:05;2.30;99.90
10312;DHT22;5201;48.776;9.128;2023-02-11T04:27:31;2.40;99.90
10312;DHT22;5201;48.776;9.128;2023-02-11T04:29:56;2.40;99.90
10312;DHT22;5201;48.776;9.128;2023-02-11T04:32:22;2.50;99.90
10312;DHT22;5201;48.776;9.128;2023-02-11T04:34:48;2.60;99.90
10312;DHT22;5201;48.776;9.128;2023-02-11T04:37:14;2.70;99.90
10312;DHT22;5201;48.776;9.128;2023-02-11T04:39:40;2.80;99.90
10312;DHT22;5201;48.776;9.128;2023-02-11T04:42:05;2.70;99.90
10312;DHT22;5201;48.776;9.128;2023-02-11T04:44:31;2.80;99.90
10312;DHT22;5201;48.776;9.128;2023-02-11T04:46:56;2.80;99.90
10312;DHT22;5201;48.776;9.128;2023-02-11T04:49:22;2.80;99.90
10312;DHT22;5201;48.776;9.128;2023-02-11T04:51:47;2.80;99.90
10312;DHT22;5201;48.776;9.128;2023-02-11T04:54:13;2.80;99.90
10312;DHT22;5201;48.776;9.128;2023-02-11T04:56:38;2.80;99.90
10312;DHT22;5201;48.776;9.128;2023-02-11T04:59:05;2.90;99.90
10312;DHT22;5201;48.776;9.128;2023-02-11T05:01:31;2.90;99.90
10312;DHT22;5201;48.776;9.128;2023-02-11T05:03:57;3.00;99.90
10312;DHT22;5201;48.776;9.128;2023-02-11T05:06:23;3.20;99.90
10312;DHT22;5201;48.776;9.128;2023-02-11T05:08:49;3.00;99.90
10312;DHT22;5201;48.776;9.128;2023-02-11T05:11:19;2.90;99.90
10312;DHT22;5201;48.776;9.128;2023-02-11T05:13:46;2.70;99.90
10312;DHT22;5201;48.776;9.128;2023-02-11T05:16:12;2.60;99.90
10312;DHT22;5201;48.776;9.128;2023-02-11T05:18:42;2.80;99.90
10312;DHT22;5201;48.776;9.128;2023-02-11T05:21:09;2.90;99.90
10312;DHT22;5201;48.776;9.128;2023-02-11T05:23:36;2.90;99.90
10312;DHT22;5201;48.776;9.128;2023-02-11T05:26:02;3.00;99.90
10312;DHT22;5201;48.776;9.128;2023-02-11T05:28:28;3.10;99.90
10312;DHT22;5201;48.776;9.128;2023-02-11T05:30:54;3.00;99.90
10312;DHT22;5201;48.776;9.128;2023-02-11T05:33:19;2.80;99.90
10312;DHT22;5201;48.776;9.128;2023-02-11T05:35:45;2.60;99.90
10312;DHT22;5201;48.776;9.128;2023-02-11T05:38:10;2.60;99.90
10312;DHT22;5201;48.776;9.128;2023-02-11T05:40:36;2.90;99.90
10312;DHT22;5201;48.776;9.128;2023-02-11T05:43:02;2.90;99.90
10312;DHT22;5201;48.776;9.128;2023-02-11T05:45:28;3.00;99.90
10312;DHT22;5201;48.776;9.128;2023-02-11T05:47:53;2.90;99.90
10312;DHT22;5201;48.776;9.128;2023-02-11T05:50:19;2.90;99.90
10312;DHT22;5201;48.776;9.128;2023-02-11T05:52:45;2.80;99.90
10312;DHT22;5201;48.776;9.128;2023-02-11T05:55:11;3.20;99.90
10312;DHT22;5201;48.776;9.128;2023-02-11T05:57:36;2.90;99.90
10312;DHT22;5201;48.776;9.128;2023-02-11T06:00:03;2.80;99.90
10312;DHT22;5201;48.776;9.128;2023-02-11T06:02:29;2.80;99.90
10312;DHT22;5201;48.776;9.128;2023-02-11T06:04:55;2.80;99.90
10312;DHT22;5201;48.776;9.128;2023-02-11T06:07:20;3.20;99.90
10312;DHT22;5201;48.776;9.128;2023-02-11T06:09:46;3.10;99.90
10312;DHT22;5201;48.776;9.128;2023-02-11T06:12:11;3.10;99.90
10312;DHT22;5201;48.776;9.128;2023-02-11T06:14:37;3.10;99.90
10312;DHT22;5201;48.776;9.128;2023-02-11T06:17:03;3.10;99.90
10312;DHT22;5201;48.776;9.128;2023-02-11T06:19:28;3.10;99.90
10312;DHT22;5201;48.776;9.128;2023-02-11T06:21:55;3.00;99.90
10312;DHT22;5201;48.776;9.128;2023-02-11T06:24:21;3.20;99.90
10312;DHT22;5201;48.776;9.128;2023-02-11T06:26:47;3.20;99.90
10312;DHT22;5201;48.776;9.128;2023-02-11T06:29:13;3.20;99.90
10312;DHT22;5201;48.776;9.128;2023-02-11T06:31:38;3.20;99.90
10312;DHT22;5201;48.776;9.128;2023-02-11T06:34:06;3.20;99.90
10312;DHT22;5201;48.776;9.128;2023-02-11T06:36:32;3.40;99.90
10312;DHT22;5201;48.776;9.128;2023-02-11T06:38:57;3.30;99.90
10312;DHT22;5201;48.776;9.128;2023-02-11T06:41:23;3.40;99.90
10312;DHT22;5201;48.776;9.128;2023-02-11T06:43:49;3.40;99.90
10312;DHT22;5201;48.776;9.128;2023-02-11T06:46:15;3.30;99.90
10312;DHT22;5201;48.776;9.128;2023-02-11T06:48:40;3.30;99.90
10312;DHT22;5201;48.776;9.128;2023-02-11T06:51:09;3.40;99.90
10312;DHT22;5201;48.776;9.128;2023-02-11T06:53:37;3.50;99.90
10312;DHT22;5201;48.776;9.128;2023-02-11T06:56:04;3.50;99.90
10312;DHT22;5201;48.776;9.128;2023-02-11T06:58:31;3.40;99.90
10312;DHT22;5201;48.776;9.128;2023-02-11T07:00:57;3.30;99.90
10312;DHT22;5201;48.776;9.128;2023-02-11T07:03:23;3.50;99.90
10312;DHT22;5201;48.776;9.128;2023-02-11T07:05:48;3.40;99.90
10312;DHT22;5201;48.776;9.128;2023-02-11T07:08:14;3.40;99.90
10312;DHT22;5201;48.776;9.128;2023-02-11T07:10:39;3.30;99.90
10312;DHT22;5201;48.776;9.128;2023-02-11T07:13:05;3.20;99.90
10312;DHT22;5201;48.776;9.128;2023-02-11T07:15:30;3.30;99.90
10312;DHT22;5201;48.776;9.128;2023-02-11T07:17:56;3.40;99.90
10312;DHT22;5201;48.776;9.128;2023-02-11T07:20:22;3.50;99.90
10312;DHT22;5201;48.776;9.128;2023-02-11T07:22:47;3.50;99.90
10312;DHT22;5201;48.776;9.128;2023-02-11T07:25:13;3.60;99.90
10312;DHT22;5201;48.776;9.128;2023-02-11T07:27:38;3.60;99.90
10312;DHT22;5201;48.776;9.128;2023-02-11T07:30:04;3.50;99.90
10312;DHT22;5201;48.776;9.128;2023-02-11T07:32:30;3.50;99.90
10312;DHT22;5201;48.776;9.128;2023-02-11T07:34:55;3.50;99.90
10312;DHT22;5201;48.776;9.128;2023-02-11T07:37:21;3.40;99.90
10312;DHT22;5201;48.776;9.128;2023-02-11T07:39:47;3.40;99.90
10312;DHT22;5201;48.776;9.128;2023-02-11T07:42:13;3.50;99.90
10312;DHT22;5201;48.776;9.128;2023-02-11T07:44:38;3.70;99.90
10312;DHT22;5201;48.776;9.128;2023-02-11T07:47:04;3.80;99.90
10312;DHT22;5201;48.776;9.128;2023-02-11T07:49:30;3.90;99.90
10312;DHT22;5201;48.776;9.128;2023-02-11T07:51:55;3.90;99.90
10312;DHT22;5201;48.776;9.128;2023-02-11T07:54:21;4.00;99.90
10312;DHT22;5201;48.776;9.128;2023-02-11T07:56:46;4.00;99.90
10312;DHT22;5201;48.776;9.128;2023-02-11T07:59:12;4.10;99.90
10312;DHT22;5201;48.776;9.128;2023-02-11T08:01:38;4.00;99.90
10312;DHT22;5201;48.776;9.128;2023-02-11T08:04:04;4.00;99.90
10312;DHT22;5201;48.776;9.128;2023-02-11T08:06:31;4.10;99.90
10312;DHT22;5201;48.776;9.128;2023-02-11T08:09:02;4.10;99.90
10312;DHT22;5201;48.776;9.128;2023-02-11T08:11:28;4.20;99.90
10312;DHT22;5201;48.776;9.128;2023-02-11T08:13:54;4.30;99.90
10312;DHT22;5201;48.776;9.128;2023-02-11T08:16:24;4.40;99.90
10312;DHT22;5201;48.776;9.128;2023-02-11T08:18:51;4.40;99.90
10312;DHT22;5201;48.776;9.128;2023-02-11T08:21:17;4.40;99.90
10312;DHT22;5201;48.776;9.128;2023-02-11T08:23:44;4.50;99.90
10312;DHT22;5201;48.776;9.128;2023-02-11T08:26:14;4.40;99.90
10312;DHT22;5201;48.776;9.128;2023-02-11T08:28:42;4.50;99.90
10312;DHT22;5201;48.776;9.128;2023-02-11T08:31:13;4.70;99.90
10312;DHT22;5201;48.776;9.128;2023-02-11T08:33:39;4.70;99.90
10312;DHT22;5201;48.776;9.128;2023-02-11T08:36:13;4.80;99.90
10312;DHT22;5201;48.776;9.128;2023-02-11T08:38:39;4.80;99.90
10312;DHT22;5201;48.776;9.128;2023-02-11T08:41:05;4.90;99.90
10312;DHT22;5201;48.776;9.128;2023-02-11T08:43:31;5.00;99.90
10312;DHT22;5201;48.776;9.128;2023-02-11T08:45:58;5.00;99.90
10312;DHT22;5201;48.776;9.128;2023-02-11T08:48:23;4.80;99.90
10312;DHT22;5201;48.776;9.128;2023-02-11T08:50:49;4.90;99.90
10312;DHT22;5201;48.776;9.128;2023-02-11T08:53:15;5.10;99.90
10312;DHT22;5201;48.776;9.128;2023-02-11T08:55:50;5.20;99.90
10312;DHT22;5201;48.776;9.128;2023-02-11T08:58:16;5.50;99.90
10312;DHT22;5201;48.776;9.128;2023-02-11T09:00:42;5.60;99.90
10312;DHT22;5201;48.776;9.128;2023-02-11T09:03:10;5.60;99.90
10312;DHT22;5201;48.776;9.128;2023-02-11T09:05:43;5.70;99.90
10312;DHT22;5201;48.776;9.128;2023-02-11T09:08:09;5.80;99.90
10312;DHT22;5201;48.776;9.128;2023-02-11T09:10:35;5.90;99.90
10312;DHT22;5201;48.776;9.128;2023-02-11T09:13:00;5.80;99.90
10312;DHT22;5201;48.776;9.128;2023-02-11T09:15:26;5.90;99.90
10312;DHT22;5201;48.776;9.128;2023-02-11T09:17:52;6.00;99.90
10312;DHT22;5201;48.776;9.128;2023-02-11T09:20:17;6.00;99.90
10312;DHT22;5201;48.776;9.128;2023-02-11T09:22:43;6.10;99.90
10312;DHT22;5201;48.776;9.128;2023-02-11T09:25:09;6.10;99.90
10312;DHT22;5201;48.776;9.128;2023-02-11T09:27:35;6.00;99.90
10312;DHT22;5201;48.776;9.128;2023-02-11T09:30:00;6.10;99.90
10312;DHT22;5201;48.776;9.128;2023-02-11T09:32:26;6.20;99.90
10312;DHT22;5201;48.776;9.128;2023-02-11T09:34:51;6.60;99.90
10312;DHT22;5201;48.776;9.128;2023-02-11T09:37:17;6.30;99.90
10312;DHT22;5201;48.776;9.128;2023-02-11T09:39:43;6.20;99.90
10312;DHT22;5201;48.776;9.128;2023-02-11T09:44:39;6.20;99.90
10312;DHT22;5201;48.776;9.128;2023-02-11T09:49:50;6.40;99.90
10312;DHT22;5201;48.776;9.128;2023-02-11T09:55:25;6.70;99.90
10312;DHT22;5201;48.776;9.128;2023-02-11T09:57:51;6.70;99.90
10312;DHT22;5201;48.776;9.128;2023-02-11T10:00:23;6.80;99.90
10312;DHT22;5201;48.776;9.128;2023-02-11T10:03:20;7.00;99.90
10312;DHT22;5201;48.776;9.128;2023-02-11T10:22:24;8.50;99.90
10312;DHT22;5201;48.776;9.128;2023-02-11T10:24:57;8.70;99.90
10312;DHT22;5201;48.776;9.128;2023-02-11T10:27:30;9.00;99.90
10312;DHT22;5201;48.776;9.128;2023-02-11T10:30:00;9.20;99.90
10312;DHT22;5201;48.776;9.128;2023-02-11T10:32:44;9.00;99.90
10312;DHT22;5201;48.776;9.128;2023-02-11T10:35:17;8.70;99.90
10312;DHT22;5201;48.776;9.128;2023-02-11T10:37:43;9.00;99.90
10312;DHT22;5201;48.776;9.128;2023-02-11T10:40:22;9.30;99.90
10312;DHT22;5201;48.776;9.128;2023-02-11T10:42:50;9.70;99.90
10312;DHT22;5201;48.776;9.128;2023-02-11T10:47:57;9.50;99.80
10312;DHT22;5201;48.776;9.128;2023-02-11T10:50:30;9.30;99.90
10312;DHT22;5201;48.776;9.128;2023-02-11T10:53:14;9.20;99.90
10312;DHT22;5201;48.776;9.128;2023-02-11T10:55:49;9.00;99.90
10312;DHT22;5201;48.776;9.128;2023-02-11T10:58:23;9.00;99.90
10312;DHT22;5201;48.776;9.128;2023-02-11T11:00:52;9.20;99.90
10312;DHT22;5201;48.776;9.128;2023-02-11T11:03:20;8.70;99.90
10312;DHT22;5201;48.776;9.128;2023-02-11T11:06:05;9.60;99.90
10312;DHT22;5201;48.776;9.128;2023-02-11T11:08:47;8.80;99.90
10312;DHT22;5201;48.776;9.128;2023-02-11T11:11:21;8.80;99.90
10312;DHT22;5201;48.776;9.128;2023-02-11T11:14:00;8.70;99.90
10312;DHT22;5201;48.776;9.128;2023-02-11T11:16:35;8.40;99.90
10312;DHT22;5201;48.776;9.128;2023-02-11T11:21:49;8.60;99.90
10312;DHT22;5201;48.776;9.128;2023-02-11T11:24:32;8.70;99.90
10312;DHT22;5201;48.776;9.128;2023-02-11T11:27:00;8.80;99.90
10312;DHT22;5201;48.776;9.128;2023-02-11T11:29:45;8.80;99.90
10312;DHT22;5201;48.776;9.128;2023-02-11T11:32:18;9.00;99.90
10312;DHT22;5201;48.776;9.128;2023-02-11T11:34:50;9.20;99.90
10312;DHT22;5201;48.776;9.128;2023-02-11T11:37:24;9.30;99.90
10312;DHT22;5201;48.776;9.128;2023-02-11T11:40:02;9.50;99.90
10312;DHT22;5201;48.776;9.128;2023-02-11T11:42:34;9.40;99.90
10312;DHT22;5201;48.776;9.128;2023-02-11T11:45:17;9.50;99.90
10312;DHT22;5201;48.776;9.128;2023-02-11T11:53:12;9.80;99.90
10312;DHT22;5201;48.776;9.128;2023-02-11T11:55:46;10.20;99.20
10312;DHT22;5201;48.776;9.128;2023-02-11T11:58:18;10.40;98.80
10312;DHT22;5201;48.776;9.128;2023-02-11T12:06:56;9.90;99.80
10312;DHT22;5201;48.776;9.128;2023-02-11T12:09:52;9.90;99.90
10312;DHT22;5201;48.776;9.128;2023-02-11T12:17:56;9.50;99.90
10312;DHT22;5201;48.776;9.128;2023-02-11T12:20:35;9.70;99.90
10312;DHT22;5201;48.776;9.128;2023-02-11T12:28:50;10.40;99.50
10312;DHT22;5201;48.776;9.128;2023-02-11T12:36:59;10.30;99.90
10312;DHT22;5201;48.776;9.128;2023-02-11T12:39:43;10.00;99.90
10312;DHT22;5201;48.776;9.128;2023-02-11T12:42:33;9.90;99.90
10312;DHT22;5201;48.776;9.128;2023-02-11T12:51:27;9.00;99.90
10312;DHT22;5201;48.776;9.128;2023-02-11T12:54:26;10.70;99.90
10312;DHT22;5201;48.776;9.128;2023-02-11T13:02:13;7.80;99.90
10312;DHT22;5201;48.776;9.128;2023-02-11T13:04:47;9.30;99.90
10312;DHT22;5201;48.776;9.128;2023-02-11T13:07:24;9.20;99.90
10312;DHT22;5201;48.776;9.128;2023-02-11T13:10:21;9.10;99.90
10312;DHT22;5201;48.776;9.128;2023-02-11T13:12:49;9.10;99.90
10312;DHT22;5201;48.776;9.128;2023-02-11T13:15:34;9.00;99.90
10312;DHT22;5201;48.776;9.128;2023-02-11T13:20:54;9.30;99.90
10312;DHT22;5201;48.776;9.128;2023-02-11T13:26:18;9.80;99.90
10312;DHT22;5201;48.776;9.128;2023-02-11T13:28:52;9.40;99.90
10312;DHT22;5201;48.776;9.128;2023-02-11T13:31:21;10.00;99.90
10312;DHT22;5201;48.776;9.128;2023-02-11T13:33:51;9.30;99.90
10312;DHT22;5201;48.776;9.128;2023-02-11T13:36:22;9.60;99.90
10312;DHT22;5201;48.776;9.128;2023-02-11T13:38:59;8.80;99.90
10312;DHT22;5201;48.776;9.128;2023-02-11T13:41:32;8.70;99.90
10312;DHT22;5201;48.776;9.128;2023-02-11T13:49:33;8.60;99.90
10312;DHT22;5201;48.776;9.128;2023-02-11T13:52:02;8.70;99.90
10312;DHT22;5201;48.776;9.128;2023-02-11T13:54:32;8.70;99.90
10312;DHT22;5201;48.776;9.128;2023-02-11T13:57:35;8.70;99.90
10312;DHT22;5201;48.776;9.128;2023-02-11T14:11:50;8.60;99.90
10312;DHT22;5201;48.776;9.128;2023-02-11T14:14:26;8.40;99.90
10312;DHT22;5201;48.776;9.128;2023-02-11T14:19:45;7.80;99.90
10312;DHT22;5201;48.776;9.128;2023-02-11T14:22:21;7.90;99.90
10312;DHT22;5201;48.776;9.128;2023-02-11T14:25:01;8.00;99.90
10312;DHT22;5201;48.776;9.128;2023-02-11T14:30:28;8.00;99.90
10312;DHT22;5201;48.776;9.128;2023-02-11T14:33:10;8.00;99.90
10312;DHT22;5201;48.776;9.128;2023-02-11T14:36:04;8.00;99.90
10312;DHT22;5201;48.776;9.128;2023-02-11T14:41:29;8.10;99.90
10312;DHT22;5201;48.776;9.128;2023-02-11T14:44:13;8.20;99.90
10312;DHT22;5201;48.776;9.128;2023-02-11T14:46:43;8.20;99.90
10312;DHT22;5201;48.776;9.128;2023-02-11T14:49:37;8.30;99.90
10312;DHT22;5201;48.776;9.128;2023-02-11T14:54:47;8.50;99.90
10312;DHT22;5201;48.776;9.128;2023-02-11T14:57:18;8.40;99.90
10312;DHT22;5201;48.776;9.128;2023-02-11T15:00:00;8.50;99.90
10312;DHT22;5201;48.776;9.128;2023-02-11T15:02:34;8.40;99.90
10312;DHT22;5201;48.776;9.128;2023-02-11T15:05:22;8.50;99.90
10312;DHT22;5201;48.776;9.128;2023-02-11T15:07:56;8.70;99.90
10312;DHT22;5201;48.776;9.128;2023-02-11T15:12:57;8.40;99.90
10312;DHT22;5201;48.776;9.128;2023-02-11T15:15:25;8.30;99.90
10312;DHT22;5201;48.776;9.128;2023-02-11T15:17:51;8.10;99.90
10312;DHT22;5201;48.776;9.128;2023-02-11T15:20:25;8.00;99.90
10312;DHT22;5201;48.776;9.128;2023-02-11T15:22:56;7.90;99.90
10312;DHT22;5201;48.776;9.128;2023-02-11T15:25:23;8.10;99.90
10312;DHT22;5201;48.776;9.128;2023-02-11T15:27:51;8.00;99.90
10312;DHT22;5201;48.776;9.128;2023-02-11T15:32:45;7.80;99.90
10312;DHT22;5201;48.776;9.128;2023-02-11T15:35:11;7.80;99.90
10312;DHT22;5201;48.776;9.128;2023-02-11T15:37:38;7.70;99.90
10312;DHT22;5201;48.776;9.128;2023-02-11T15:40:28;7.70;99.90
10312;DHT22;5201;48.776;9.128;2023-02-11T15:45:28;7.30;99.90
10312;DHT22;5201;48.776;9.128;2023-02-11T15:47:58;7.20;99.90
10312;DHT22;5201;48.776;9.128;2023-02-11T15:50:30;7.00;99.90
10312;DHT22;5201;48.776;9.128;2023-02-11T15:52:59;7.10;99.90
10312;DHT22;5201;48.776;9.128;2023-02-11T15:55:26;7.00;99.90
10312;DHT22;5201;48.776;9.128;2023-02-11T15:57:56;7.00;99.90
10312;DHT22;5201;48.776;9.128;2023-02-11T16:00:26;6.90;99.90
10312;DHT22;5201;48.776;9.128;2023-02-11T16:02:54;6.90;99.90
10312;DHT22;5201;48.776;9.128;2023-02-11T16:05:32;7.10;99.90
10312;DHT22;5201;48.776;9.128;2023-02-11T16:08:00;6.90;99.90
10312;DHT22;5201;48.776;9.128;2023-02-11T16:10:32;6.90;99.90
10312;DHT22;5201;48.776;9.128;2023-02-11T16:13:17;7.10;99.90
10312;DHT22;5201;48.776;9.128;2023-02-11T16:18:33;7.20;99.90
10312;DHT22;5201;48.776;9.128;2023-02-11T16:21:00;7.10;99.90
10312;DHT22;5201;48.776;9.128;2023-02-11T16:23:30;7.00;99.90
10312;DHT22;5201;48.776;9.128;2023-02-11T16:28:48;7.10;99.90
10312;DHT22;5201;48.776;9.128;2023-02-11T16:31:14;7.00;99.90
10312;DHT22;5201;48.776;9.128;2023-02-11T16:33:40;6.90;99.90
10312;DHT22;5201;48.776;9.128;2023-02-11T16:36:12;7.00;99.90
10312;DHT22;5201;48.776;9.128;2023-02-11T16:38:38;7.10;99.90
10312;DHT22;5201;48.776;9.128;2023-02-11T16:41:04;7.20;99.90
10312;DHT22;5201;48.776;9.128;2023-02-11T16:43:29;7.30;99.90
10312;DHT22;5201;48.776;9.128;2023-02-11T16:45:57;7.20;99.90
10312;DHT22;5201;48.776;9.128;2023-02-11T16:48:22;7.10;99.90
10312;DHT22;5201;48.776;9.128;2023-02-11T16:50:49;7.10;99.90
10312;DHT22;5201;48.776;9.128;2023-02-11T16:53:18;7.50;99.90
10312;DHT22;5201;48.776;9.128;2023-02-11T16:55:45;7.10;99.90
10312;DHT22;5201;48.776;9.128;2023-02-11T16:58:11;8.30;99.90
10312;DHT22;5201;48.776;9.128;2023-02-11T17:00:37;7.20;99.90
10312;DHT22;5201;48.776;9.128;2023-02-11T17:03:05;7.30;99.90
10312;DHT22;5201;48.776;9.128;2023-02-11T17:05:31;7.40;99.90
10312;DHT22;5201;48.776;9.128;2023-02-11T17:07:57;7.50;99.90
10312;DHT22;5201;48.776;9.128;2023-02-11T17:10:25;7.30;99.90
10312;DHT22;5201;48.776;9.128;2023-02-11T17:12:51;7.30;99.90
10312;DHT22;5201;48.776;9.128;2023-02-11T17:15:18;7.30;99.90
10312;DHT22;5201;48.776;9.128;2023-02-11T17:17:43;7.20;99.90
10312;DHT22;5201;48.776;9.128;2023-02-11T17:20:12;7.30;99.90
10312;DHT22;5201;48.776;9.128;2023-02-11T17:22:38;7.30;99.90
10312;DHT22;5201;48.776;9.128;2023-02-11T17:25:04;8.90;99.90
10312;DHT22;5201;48.776;9.128;2023-02-11T17:27:31;7.30;99.90
10312;DHT22;5201;48.776;9.128;2023-02-11T17:29:57;7.30;99.90
10312;DHT22;5201;48.776;9.128;2023-02-11T17:32:23;7.30;99.90
10312;DHT22;5201;48.776;9.128;2023-02-11T17:34:49;7.30;99.90
10312;DHT22;5201;48.776;9.128;2023-02-11T17:37:16;7.20;99.90
10312;DHT22;5201;48.776;9.128;2023-02-11T17:39:42;7.00;99.90
10312;DHT22;5201;48.776;9.128;2023-02-11T17:42:09;7.00;99.90
10312;DHT22;5201;48.776;9.128;2023-02-11T17:44:36;7.20;99.90
10312;DHT22;5201;48.776;9.128;2023-02-11T17:47:02;7.20;99.90
10312;DHT22;5201;48.776;9.128;2023-02-11T17:49:28;7.20;99.90
10312;DHT22;5201;48.776;9.128;2023-02-11T17:51:54;7.30;99.90
10312;DHT22;5201;48.776;9.128;2023-02-11T17:54:20;7.30;99.90
10312;DHT22;5201;48.776;9.128;2023-02-11T17:56:46;7.30;99.90
10312;DHT22;5201;48.776;9.128;2023-02-11T17:59:15;7.30;99.90
10312;DHT22;5201;48.776;9.128;2023-02-11T18:01:42;7.50;99.90
10312;DHT22;5201;48.776;9.128;2023-02-11T18:04:12;7.50;99.90
10312;DHT22;5201;48.776;9.128;2023-02-11T18:06:38;7.50;99.90
10312;DHT22;5201;48.776;9.128;2023-02-11T18:09:04;7.60;99.90
10312;DHT22;5201;48.776;9.128;2023-02-11T18:11:31;7.70;99.90
10312;DHT22;5201;48.776;9.128;2023-02-11T18:13:58;7.80;99.90
10312;DHT22;5201;48.776;9.128;2023-02-11T18:16:24;7.70;99.90
10312;DHT22;5201;48.776;9.128;2023-02-11T18:18:53;7.50;99.90
10312;DHT22;5201;48.776;9.128;2023-02-11T18:21:20;7.30;99.90
10312;DHT22;5201;48.776;9.128;2023-02-11T18:23:47;7.40;99.90
10312;DHT22;5201;48.776;9.128;2023-02-11T18:26:16;7.40;99.90
10312;DHT22;5201;48.776;9.128;2023-02-11T18:28:42;8.00;99.90
10312;DHT22;5201;48.776;9.128;2023-02-11T18:31:09;7.70;99.90
10312;DHT22;5201;48.776;9.128;2023-02-11T18:33:36;7.90;99.90